Time;durP1;ratioP1;P1;durP2;ratioP2;P2;SDS_P1;SDS_P2;PMS_P1;PMS_P2;Temp;Humidity;BMP_temperature;BMP_pressure;BME280_temperature;BME280_humidity;BME280_pressure;Samples;Min_cycle;Max_cycle;Signal;HPM_P1;HPM_P2
2022/11/15 00:00:54;;;;;;;13.77;9.25;;;9.20;99.90;;;;;;5061128;28;20032;-88
2022/11/15 00:03:25;;;;;;;16.27;7.60;;;9.30;99.90;;;;;;5063243;28;20025;-91
2022/11/15 00:05:51;;;;;;;12.30;7.25;;;9.30;99.90;;;;;;5069292;28;20032;-87
2022/11/15 00:08:17;;;;;;;15.65;7.82;;;9.50;99.90;;;;;;5060240;28;20504;-92
2022/11/15 00:10:43;;;;;;;13.30;7.65;;;9.60;99.90;;;;;;5061142;28;20117;-89
2022/11/15 00:13:12;;;;;;;12.23;7.70;;;9.60;99.90;;;;;;5070163;28;20025;-89
2022/11/15 00:15:40;;;;;;;12.10;7.72;;;9.80;99.90;;;;;;5066324;28;20025;-88
2022/11/15 00:18:11;;;;;;;20.42;8.40;;;9.90;99.90;;;;;;5069637;28;20024;-88
2022/11/15 00:20:37;;;;;;;13.48;7.30;;;9.90;99.90;;;;;;5070154;28;20393;-85
2022/11/15 00:23:06;;;;;;;12.20;7.57;;;10.00;99.90;;;;;;5068664;28;20034;-90
2022/11/15 00:25:32;;;;;;;14.43;7.18;;;10.00;99.90;;;;;;5063678;28;20055;-91
2022/11/15 00:28:01;;;;;;;11.98;6.95;;;10.10;99.90;;;;;;5060600;28;20047;-89
2022/11/15 00:30:27;;;;;;;15.27;7.00;;;10.10;99.90;;;;;;5060459;28;20043;-89
2022/11/15 00:32:52;;;;;;;15.75;7.10;;;10.30;99.90;;;;;;5060607;28;20029;-87
2022/11/15 00:35:19;;;;;;;11.93;6.47;;;10.30;99.90;;;;;;5060681;28;20396;-85
2022/11/15 00:37:47;;;;;;;8.90;6.20;;;10.40;99.90;;;;;;5060412;28;20024;-88
2022/11/15 00:40:13;;;;;;;12.88;6.25;;;10.40;99.90;;;;;;5060832;28;20036;-89
2022/11/15 00:42:38;;;;;;;18.95;6.82;;;10.50;99.90;;;;;;5059632;28;20033;-89
2022/11/15 00:45:04;;;;;;;11.80;6.22;;;10.50;99.90;;;;;;5069876;28;20037;-91
2022/11/15 00:47:30;;;;;;;17.65;7.43;;;10.50;99.90;;;;;;5067243;28;20052;-87
2022/11/15 00:49:56;;;;;;;11.13;6.20;;;10.50;99.90;;;;;;5062173;28;20035;-90
2022/11/15 00:52:21;;;;;;;9.73;6.50;;;10.50;99.90;;;;;;5060209;28;20078;-88
2022/11/15 00:54:47;;;;;;;10.52;6.30;;;10.50;99.90;;;;;;5069892;28;20492;-88
2022/11/15 00:57:12;;;;;;;10.02;5.82;;;10.50;99.90;;;;;;5068814;28;20097;-87
2022/11/15 00:59:38;;;;;;;10.30;6.55;;;10.50;99.90;;;;;;5060397;28;20386;-93
2022/11/15 01:02:04;;;;;;;13.25;6.95;;;10.50;99.90;;;;;;5062943;28;20037;-89
2022/11/15 01:04:29;;;;;;;10.10;6.22;;;10.50;99.90;;;;;;5066692;28;20546;-89
2022/11/15 01:06:55;;;;;;;10.70;6.32;;;10.40;99.90;;;;;;5069428;28;20129;-90
2022/11/15 01:09:20;;;;;;;10.45;5.45;;;10.40;99.90;;;;;;5060431;28;20120;-86
2022/11/15 01:11:46;;;;;;;15.55;7.63;;;10.50;99.90;;;;;;5058634;28;20033;-88
2022/11/15 01:14:12;;;;;;;12.88;6.95;;;10.40;99.90;;;;;;5069064;28;20039;-92
2022/11/15 01:16:37;;;;;;;17.98;6.30;;;10.50;99.90;;;;;;5069130;28;20031;-90
2022/11/15 01:19:03;;;;;;;14.07;6.18;;;10.50;99.90;;;;;;5066603;28;20477;-87
2022/11/15 01:21:29;;;;;;;11.35;6.18;;;10.60;99.90;;;;;;5052432;28;20139;-91
2022/11/15 01:23:56;;;;;;;12.68;7.05;;;10.50;99.90;;;;;;5068948;28;20028;-91
2022/11/15 01:26:22;;;;;;;12.45;6.22;;;10.70;99.90;;;;;;5062923;28;20527;-88
2022/11/15 01:28:48;;;;;;;14.02;6.50;;;10.70;99.90;;;;;;5059348;28;20045;-90
2022/11/15 01:31:19;;;;;;;9.35;6.47;;;10.70;99.90;;;;;;5058611;28;20327;-88
2022/11/15 01:33:46;;;;;;;12.63;6.28;;;10.70;99.90;;;;;;5059101;28;20470;-92
2022/11/15 01:36:22;;;;;;;11.98;6.35;;;10.70;99.90;;;;;;5057892;28;20072;-90
2022/11/15 01:38:52;;;;;;;;;;;10.80;99.90;;;;;;5060581;28;20355;-90
2022/11/15 01:41:21;;;;;;;10.68;5.93;;;10.80;99.90;;;;;;5068826;28;20008;-91
2022/11/15 01:43:51;;;;;;;11.63;5.95;;;10.90;99.90;;;;;;5063231;28;20036;-88
2022/11/15 01:46:26;;;;;;;15.77;6.28;;;10.90;99.90;;;;;;5066973;28;20052;-86
2022/11/15 01:48:54;;;;;;;11.70;6.78;;;10.90;99.90;;;;;;5068834;28;20468;-86
2022/11/15 01:51:24;;;;;;;10.02;5.53;;;10.90;99.90;;;;;;5067492;28;20032;-84
2022/11/15 01:53:55;;;;;;;11.77;5.75;;;11.00;99.90;;;;;;5060632;28;20040;-84
2022/11/15 01:56:25;;;;;;;12.13;5.50;;;10.90;99.90;;;;;;5068332;28;20538;-85
2022/11/15 01:58:53;;;;;;;8.43;5.45;;;11.00;99.90;;;;;;5067731;28;20039;-86
2022/11/15 02:01:19;;;;;;;16.65;6.25;;;11.00;99.90;;;;;;5058805;28;20033;-92
2022/11/15 02:04:40;;;;;;;7.68;5.07;;;10.90;99.90;;;;;;5061635;28;20049;-90
2022/11/15 02:07:09;;;;;;;14.27;5.50;;;10.90;99.90;;;;;;5032723;28;20059;-87
2022/11/15 02:09:37;;;;;;;12.07;6.53;;;10.90;99.90;;;;;;5058698;28;20530;-88
2022/11/15 02:12:03;;;;;;;11.32;5.72;;;10.90;99.90;;;;;;5058980;28;20035;-89
2022/11/15 02:14:31;;;;;;;9.48;5.82;;;10.90;99.90;;;;;;5058715;28;20120;-91
2022/11/15 02:17:13;;;;;;;10.00;5.70;;;10.80;99.90;;;;;;5057933;28;20735;-87
2022/11/15 02:19:57;;;;;;;13.38;6.05;;;10.80;99.90;;;;;;5057994;28;20063;-88
2022/11/15 02:22:47;;;;;;;13.27;6.07;;;10.80;99.90;;;;;;5064882;28;20111;-88
2022/11/15 02:25:33;;;;;;;12.82;5.82;;;10.80;99.90;;;;;;5057686;28;20048;-90
2022/11/15 02:28:05;;;;;;;13.50;6.78;;;10.80;99.90;;;;;;5056995;28;20049;-91
2022/11/15 02:31:05;;;;;;;9.48;5.45;;;10.70;99.90;;;;;;5064944;28;20060;-87
2022/11/15 02:33:47;;;;;;;12.05;5.65;;;10.70;99.90;;;;;;5057325;28;20036;-87
2022/11/15 02:36:36;;;;;;;11.70;5.28;;;10.70;99.90;;;;;;5063413;28;20037;-85
2022/11/15 02:39:35;;;;;;;10.23;5.43;;;10.70;99.90;;;;;;5045592;28;20032;-90
2022/11/15 02:43:56;;;;;;;11.95;5.40;;;10.70;99.90;;;;;;5043096;28;20049;-88
2022/11/15 02:44:58;;;;;;;12.65;6.63;;;10.70;99.90;;;;;;5057285;28;20257;-89
2022/11/15 02:47:27;;;;;;;10.75;6.57;;;10.70;99.90;;;;;;5067401;28;20032;-88
2022/11/15 02:49:56;;;;;;;15.18;6.18;;;10.70;99.90;;;;;;5067607;28;20055;-88
2022/11/15 02:52:27;;;;;;;8.50;5.03;;;10.70;99.90;;;;;;5057847;28;20039;-90
2022/11/15 02:55:00;;;;;;;14.45;6.25;;;10.70;99.90;;;;;;5052195;28;20021;-86
2022/11/15 02:58:03;;;;;;;10.73;6.40;;;10.80;99.90;;;;;;5066034;28;20404;-87
2022/11/15 03:00:35;;;;;;;14.95;6.20;;;10.70;99.90;;;;;;5067402;28;20461;-89
2022/11/15 03:03:36;;;;;;;10.73;5.68;;;10.70;99.90;;;;;;5061339;28;20032;-87
2022/11/15 03:06:21;;;;;;;16.05;5.63;;;10.70;99.90;;;;;;5031909;28;20037;-87
2022/11/15 03:09:19;;;;;;;14.57;5.93;;;10.70;99.90;;;;;;5063393;28;20097;-91
2022/11/15 03:11:50;;;;;;;14.13;6.47;;;10.70;99.90;;;;;;5065202;28;20051;-88
2022/11/15 03:14:25;;;;;;;11.52;5.43;;;10.70;99.90;;;;;;5071302;28;20041;-91
2022/11/15 03:17:03;;;;;;;12.13;5.80;;;10.70;99.90;;;;;;5066397;28;20059;-85
2022/11/15 03:19:32;;;;;;;11.88;5.63;;;10.80;99.90;;;;;;5066436;28;20024;-91
2022/11/15 03:22:04;;;;;;;16.75;5.93;;;10.80;99.90;;;;;;5067083;28;20036;-87
2022/11/15 03:24:31;;;;;;;11.57;5.95;;;10.80;99.90;;;;;;5062122;28;20493;-88
2022/11/15 03:27:00;;;;;;;17.13;6.28;;;10.90;99.90;;;;;;5071074;28;20481;-94
2022/11/15 03:29:50;;;;;;;10.82;5.45;;;10.90;99.90;;;;;;5071014;28;20059;-87
2022/11/15 03:32:23;;;;;;;10.65;5.78;;;10.80;99.90;;;;;;5064473;28;20121;-86
2022/11/15 03:35:10;;;;;;;18.33;6.82;;;10.80;99.90;;;;;;5070897;28;20384;-83
2022/11/15 03:37:48;;;;;;;11.82;5.88;;;10.80;99.90;;;;;;5070682;28;20055;-85
2022/11/15 03:40:15;;;;;;;7.38;5.10;;;10.80;99.90;;;;;;5066996;28;20033;-87
2022/11/15 03:42:53;;;;;;;10.10;5.30;;;10.90;99.90;;;;;;5070849;28;21055;-87
2022/11/15 03:45:44;;;;;;;14.50;6.07;;;10.80;99.90;;;;;;5070167;28;20037;-89
2022/11/15 03:48:41;;;;;;;11.20;5.57;;;10.70;99.90;;;;;;5066503;28;20028;-83
2022/11/15 03:51:07;;;;;;;10.45;5.93;;;10.70;99.90;;;;;;5068759;28;20128;-87
2022/11/15 03:53:32;;;;;;;11.05;5.00;;;10.60;99.90;;;;;;5065869;28;20112;-87
2022/11/15 03:55:58;;;;;;;12.60;5.35;;;10.60;99.90;;;;;;5064222;28;20112;-87
2022/11/15 03:58:24;;;;;;;12.15;5.35;;;10.60;99.90;;;;;;5063455;28;20025;-86
2022/11/15 04:00:49;;;;;;;9.35;5.35;;;10.60;99.90;;;;;;5071140;28;20020;-87
2022/11/15 04:03:18;;;;;;;11.23;5.50;;;10.60;99.90;;;;;;5061034;28;20552;-84
2022/11/15 04:05:44;;;;;;;9.05;5.25;;;10.50;99.90;;;;;;5060363;28;20033;-89
2022/11/15 04:08:09;;;;;;;9.95;5.60;;;10.50;99.90;;;;;;5062203;28;20093;-88
2022/11/15 04:10:35;;;;;;;8.30;5.65;;;10.50;99.90;;;;;;5063106;28;20124;-85
2022/11/15 04:13:02;;;;;;;13.85;6.50;;;10.40;99.90;;;;;;5060113;28;20125;-88
2022/11/15 04:15:29;;;;;;;12.90;5.63;;;10.50;99.90;;;;;;5060856;28;20035;-88
2022/11/15 04:17:57;;;;;;;15.43;5.05;;;10.50;99.90;;;;;;5060835;28;20024;-89
2022/11/15 04:26:11;;;;;;;10.85;4.90;;;10.60;99.90;;;;;;5061131;28;20067;-88
2022/11/15 04:31:21;;;;;;;12.52;5.65;;;10.50;99.90;;;;;;5066717;28;20079;-86
2022/11/15 04:33:47;;;;;;;13.45;5.50;;;10.50;99.90;;;;;;5070525;28;20060;-87
2022/11/15 04:38:57;;;;;;;15.60;6.25;;;10.50;99.90;;;;;;5062304;28;20098;-90
2022/11/15 04:41:22;;;;;;;18.05;5.97;;;10.40;99.90;;;;;;5069984;28;20424;-89
2022/11/15 04:43:48;;;;;;;12.93;5.15;;;10.40;99.90;;;;;;5070107;28;20025;-88
2022/11/15 04:46:14;;;;;;;10.90;6.25;;;10.40;99.90;;;;;;5069831;28;20021;-89
2022/11/15 04:48:39;;;;;;;11.18;5.50;;;10.40;99.90;;;;;;5064651;28;20032;-87
2022/11/15 04:51:05;;;;;;;13.43;6.05;;;10.30;99.90;;;;;;5070157;28;20107;-88
2022/11/15 04:53:30;;;;;;;16.75;5.63;;;10.30;99.90;;;;;;5059807;28;20052;-91
2022/11/15 04:55:56;;;;;;;14.05;6.32;;;10.30;99.90;;;;;;5060364;28;20429;-90
2022/11/15 04:58:21;;;;;;;12.35;5.93;;;10.30;99.90;;;;;;5060534;28;20029;-88
2022/11/15 05:00:47;;;;;;;16.83;6.15;;;10.30;99.90;;;;;;5060405;28;20034;-88
2022/11/15 05:05:58;;;;;;;17.92;6.28;;;10.30;99.90;;;;;;5066459;28;20500;-92
2022/11/15 05:08:27;;;;;;;11.57;5.90;;;10.20;99.90;;;;;;5058942;28;20114;-93
2022/11/15 05:10:52;;;;;;;10.98;6.05;;;10.20;99.90;;;;;;5065003;28;20031;-87
2022/11/15 05:13:18;;;;;;;11.90;6.13;;;10.20;99.90;;;;;;5063152;28;20017;-93
2022/11/15 05:15:44;;;;;;;12.05;5.88;;;10.30;99.90;;;;;;5066574;28;20032;-92
2022/11/15 05:18:10;;;;;;;7.70;5.35;;;10.20;99.90;;;;;;5067059;28;20035;-91
2022/11/15 05:20:35;;;;;;;7.78;5.20;;;10.20;99.90;;;;;;5069114;28;20758;-90
2022/11/15 05:23:01;;;;;;;9.52;5.20;;;10.30;99.90;;;;;;5068792;28;20042;-90
2022/11/15 05:25:27;;;;;;;13.20;5.20;;;10.30;99.90;;;;;;5068332;28;20127;-90
2022/11/15 05:27:53;;;;;;;12.05;5.47;;;10.30;99.90;;;;;;5068129;28;20128;-91
2022/11/15 05:30:18;;;;;;;12.25;5.78;;;10.30;99.90;;;;;;5060147;28;20028;-89
2022/11/15 05:32:44;;;;;;;11.38;5.22;;;10.30;99.90;;;;;;5067294;28;20025;-88
2022/11/15 05:35:30;;;;;;;10.40;5.15;;;10.20;99.90;;;;;;5058435;28;20032;-93
2022/11/15 05:37:56;;;;;;;;;;;10.30;99.90;;;;;;5066000;28;20444;-89
2022/11/15 05:40:22;;;;;;;13.75;6.03;;;10.20;99.90;;;;;;5068939;28;19909;-88
2022/11/15 05:42:48;;;;;;;10.90;4.97;;;10.20;99.90;;;;;;5060319;28;20033;-92
2022/11/15 05:45:15;;;;;;;17.95;5.85;;;10.20;99.90;;;;;;5058525;28;20469;-89
2022/11/15 05:47:41;;;;;;;13.93;6.93;;;10.20;99.90;;;;;;5058615;28;20295;-90
2022/11/15 05:50:07;;;;;;;11.90;5.55;;;10.20;99.90;;;;;;5058497;28;20032;-88
2022/11/15 05:52:35;;;;;;;11.60;5.82;;;10.20;99.90;;;;;;5058631;28;20028;-87
2022/11/15 05:55:04;;;;;;;20.35;6.00;;;10.20;99.90;;;;;;5057065;28;20086;-90
2022/11/15 05:57:29;;;;;;;10.40;5.78;;;10.20;99.90;;;;;;5056995;28;20081;-91
2022/11/15 05:59:55;;;;;;;11.77;5.75;;;10.10;99.90;;;;;;5064961;28;20024;-90
2022/11/15 06:02:21;;;;;;;7.38;4.70;;;10.30;99.90;;;;;;5068648;28;20484;-84
2022/11/15 06:04:47;;;;;;;9.55;5.40;;;10.20;99.90;;;;;;5068241;28;20264;-91
2022/11/15 06:07:12;;;;;;;10.25;4.97;;;10.30;99.90;;;;;;5068526;28;20040;-93
2022/11/15 06:09:38;;;;;;;7.43;5.15;;;10.30;99.90;;;;;;5067578;28;20063;-90
2022/11/15 06:12:04;;;;;;;11.70;4.78;;;10.30;99.90;;;;;;5058861;28;20040;-89
2022/11/15 06:14:29;;;;;;;13.57;5.55;;;10.30;99.90;;;;;;5066054;28;20496;-89
2022/11/15 06:16:55;;;;;;;14.38;5.38;;;10.30;99.90;;;;;;5051004;28;20033;-89
2022/11/15 06:19:21;;;;;;;10.23;4.65;;;10.20;99.90;;;;;;5058194;28;20017;-89
2022/11/15 06:21:46;;;;;;;12.95;5.68;;;10.20;99.90;;;;;;5066959;28;20052;-90
2022/11/15 06:24:12;;;;;;;13.30;4.95;;;10.30;99.90;;;;;;5062440;28;20037;-88
2022/11/15 06:26:37;;;;;;;6.18;4.90;;;10.20;99.90;;;;;;5057353;28;20021;-88
2022/11/15 06:29:04;;;;;;;13.60;5.53;;;10.20;99.90;;;;;;5057559;28;20482;-87
2022/11/15 06:31:30;;;;;;;11.00;5.70;;;10.20;99.90;;;;;;5061851;28;20125;-87
2022/11/15 06:33:55;;;;;;;7.60;4.72;;;10.10;99.90;;;;;;5067441;28;20041;-89
2022/11/15 06:36:21;;;;;;;10.20;4.90;;;10.10;99.90;;;;;;5066791;28;20033;-84
2022/11/15 06:38:47;;;;;;;7.55;4.72;;;10.10;99.90;;;;;;5057791;28;20090;-88
2022/11/15 06:41:14;;;;;;;11.77;4.18;;;10.20;99.90;;;;;;5056304;28;20029;-90
2022/11/15 06:43:40;;;;;;;8.82;4.60;;;10.10;99.90;;;;;;5060674;28;20104;-86
2022/11/15 06:46:07;;;;;;;7.45;4.75;;;10.10;99.90;;;;;;5058998;28;20112;-87
2022/11/15 06:48:33;;;;;;;13.18;4.88;;;10.20;99.90;;;;;;5066624;28;20044;-88
2022/11/15 06:51:00;;;;;;;8.75;4.95;;;10.20;99.90;;;;;;5067880;28;20024;-87
2022/11/15 06:53:26;;;;;;;6.57;4.05;;;10.20;99.90;;;;;;5058906;28;20036;-88
2022/11/15 06:55:52;;;;;;;9.10;4.35;;;10.20;99.90;;;;;;5058093;28;20017;-89
2022/11/15 06:58:20;;;;;;;8.73;4.55;;;10.30;99.90;;;;;;5054324;28;20025;-88
2022/11/15 07:00:46;;;;;;;8.55;4.53;;;10.30;99.90;;;;;;5061080;28;20519;-88
2022/11/15 07:03:11;;;;;;;8.32;4.55;;;10.30;99.90;;;;;;5060258;28;20021;-89
2022/11/15 07:05:37;;;;;;;8.13;4.15;;;10.40;99.90;;;;;;5067372;28;20119;-87
2022/11/15 07:08:03;;;;;;;12.10;4.28;;;10.40;99.90;;;;;;5057943;28;20032;-88
2022/11/15 07:10:29;;;;;;;6.22;4.18;;;10.50;99.90;;;;;;5067503;28;20032;-88
2022/11/15 07:12:58;;;;;;;6.97;3.95;;;10.60;99.90;;;;;;5067902;28;20458;-82
2022/11/15 07:15:25;;;;;;;9.40;3.97;;;10.60;99.90;;;;;;5057647;28;20044;-87
2022/11/15 07:17:51;;;;;;;7.82;4.30;;;10.70;99.90;;;;;;5067384;28;20025;-87
2022/11/15 07:20:17;;;;;;;11.25;5.13;;;10.80;99.90;;;;;;5067781;28;20024;-87
2022/11/15 07:22:45;;;;;;;6.45;4.00;;;10.90;99.90;;;;;;5058829;28;20112;-89
2022/11/15 07:25:11;;;;;;;6.43;3.97;;;11.00;99.90;;;;;;5056710;28;20190;-88
2022/11/15 07:27:37;;;;;;;11.75;4.63;;;11.10;99.90;;;;;;5058312;28;20132;-88
2022/11/15 07:30:04;;;;;;;14.55;4.15;;;11.20;99.90;;;;;;5067743;28;20381;-88
2022/11/15 07:32:29;;;;;;;10.13;3.80;;;11.30;99.90;;;;;;5067270;28;20358;-86
2022/11/15 07:34:55;;;;;;;10.20;4.85;;;11.30;99.90;;;;;;5057865;28;20032;-86
2022/11/15 07:37:20;;;;;;;8.45;4.22;;;11.30;99.90;;;;;;5058160;28;20473;-84
2022/11/15 07:39:46;;;;;;;12.70;5.03;;;11.30;99.90;;;;;;5067115;28;20027;-86
2022/11/15 07:44:56;;;;;;;17.38;4.50;;;11.40;99.90;;;;;;5057542;28;20031;-82
2022/11/15 07:47:21;;;;;;;8.93;4.15;;;11.40;99.90;;;;;;5057551;28;20400;-82
2022/11/15 07:49:47;;;;;;;7.22;3.65;;;11.40;99.90;;;;;;5067213;28;20110;-87
2022/11/15 07:52:13;;;;;;;7.20;3.97;;;11.40;99.90;;;;;;5067171;28;20029;-87
2022/11/15 07:54:39;;;;;;;5.20;3.75;;;11.40;99.90;;;;;;5067000;28;20039;-86
2022/11/15 07:57:06;;;;;;;8.45;3.70;;;11.50;99.90;;;;;;5067564;28;20111;-86
2022/11/15 07:59:32;;;;;;;7.05;3.45;;;11.60;99.90;;;;;;5060835;28;20028;-87
2022/11/15 08:01:58;;;;;;;8.23;3.50;;;11.70;99.90;;;;;;5065077;28;20539;-87
2022/11/15 08:04:23;;;;;;;15.98;6.95;;;11.80;99.90;;;;;;5067041;28;20035;-87
2022/11/15 08:06:49;;;;;;;10.57;4.60;;;11.90;99.90;;;;;;5070696;28;20024;-88
2022/11/15 08:09:15;;;;;;;9.38;3.58;;;12.00;99.90;;;;;;5061148;28;20492;-88
2022/11/15 08:11:41;;;;;;;5.60;3.40;;;12.00;99.90;;;;;;5060643;28;20401;-83
2022/11/15 08:14:06;;;;;;;7.03;3.67;;;12.10;99.90;;;;;;5060794;28;20047;-89
2022/11/15 08:16:32;;;;;;;5.72;3.33;;;12.10;99.90;;;;;;5068781;28;20025;-90
2022/11/15 08:18:58;;;;;;;9.15;3.70;;;12.20;99.90;;;;;;5060291;28;20029;-87
2022/11/15 08:21:23;;;;;;;5.72;3.30;;;12.20;99.90;;;;;;5060090;28;20033;-86
2022/11/15 08:23:49;;;;;;;6.07;3.63;;;12.20;99.90;;;;;;5063949;28;20297;-88
2022/11/15 08:26:15;;;;;;;4.18;2.67;;;12.30;99.90;;;;;;5070094;28;20432;-82
2022/11/15 08:28:41;;;;;;;5.70;3.38;;;12.30;99.90;;;;;;5070102;28;20039;-87
2022/11/15 08:31:07;;;;;;;11.05;3.47;;;12.20;99.90;;;;;;5060804;28;20074;-84
2022/11/15 08:33:33;;;;;;;5.30;3.30;;;12.30;99.90;;;;;;5057627;28;20032;-87
2022/11/15 08:35:59;;;;;;;5.13;3.08;;;12.20;99.90;;;;;;5060169;28;20033;-87
2022/11/15 08:38:28;;;;;;;4.10;2.88;;;12.20;99.90;;;;;;5059571;28;20029;-83
2022/11/15 08:41:03;;;;;;;7.57;2.67;;;12.20;99.90;;;;;;5059770;28;20063;-86
2022/11/15 08:43:29;;;;;;;6.10;3.13;;;12.20;99.90;;;;;;5051950;28;20393;-87
2022/11/15 08:45:58;;;;;;;9.02;3.38;;;12.10;99.90;;;;;;5060412;28;20021;-87
2022/11/15 08:48:25;;;;;;;7.10;3.78;;;12.10;99.90;;;;;;5059401;28;20036;-88
2022/11/15 08:50:55;;;;;;;6.63;3.05;;;12.10;99.90;;;;;;5060735;28;20435;-87
2022/11/15 08:53:20;;;;;;;8.43;3.60;;;12.10;99.90;;;;;;5061472;28;20371;-87
2022/11/15 08:55:46;;;;;;;7.10;3.13;;;12.10;99.90;;;;;;5069049;28;20036;-88
2022/11/15 08:58:12;;;;;;;9.43;3.38;;;12.10;99.90;;;;;;5068782;28;20020;-87
2022/11/15 09:00:38;;;;;;;6.68;3.88;;;12.10;99.90;;;;;;5064341;28;20025;-86
2022/11/15 09:03:05;;;;;;;7.60;3.83;;;12.10;99.90;;;;;;5060289;28;20473;-87
2022/11/15 09:05:31;;;;;;;9.68;3.70;;;12.10;99.90;;;;;;5061805;28;20557;-86
2022/11/15 09:07:56;;;;;;;6.47;3.45;;;12.20;99.90;;;;;;5059410;28;20036;-87
2022/11/15 09:10:22;;;;;;;6.15;3.70;;;12.20;99.90;;;;;;5058710;28;20381;-88
2022/11/15 09:12:48;;;;;;;7.18;4.28;;;12.20;99.90;;;;;;5058323;28;20497;-87
2022/11/15 09:15:15;;;;;;;6.75;3.80;;;12.20;99.90;;;;;;5058500;28;20028;-87
2022/11/15 09:17:40;;;;;;;6.50;3.42;;;12.30;99.90;;;;;;5066439;28;20088;-86
2022/11/15 09:20:07;;;;;;;12.10;4.00;;;12.20;99.90;;;;;;5068768;28;20101;-86
2022/11/15 09:22:33;;;;;;;12.43;4.32;;;12.30;99.90;;;;;;5069188;28;20028;-87
2022/11/15 09:24:58;;;;;;;7.38;3.33;;;12.40;99.90;;;;;;5068198;28;20124;-86
2022/11/15 09:27:31;;;;;;;13.10;4.15;;;12.60;99.90;;;;;;5068894;28;20066;-87
2022/11/15 09:29:56;;;;;;;10.07;4.25;;;12.70;99.90;;;;;;5066271;28;20021;-88
2022/11/15 09:32:23;;;;;;;6.75;3.22;;;12.80;99.90;;;;;;5062439;28;20108;-86
2022/11/15 09:34:51;;;;;;;9.93;3.50;;;12.90;99.90;;;;;;5064340;28;20039;-86
2022/11/15 09:37:17;;;;;;;5.22;3.83;;;12.90;99.90;;;;;;5065070;28;20032;-87
2022/11/15 09:39:42;;;;;;;6.55;3.30;;;12.90;99.90;;;;;;5068775;28;20035;-87
2022/11/15 09:42:17;;;;;;;6.55;3.53;;;12.90;99.90;;;;;;5059121;28;20028;-86
2022/11/15 09:44:45;;;;;;;10.80;4.10;;;12.90;99.90;;;;;;5062405;28;20048;-86
2022/11/15 09:47:32;;;;;;;8.98;3.33;;;12.90;99.90;;;;;;5064294;28;20029;-87
2022/11/15 09:50:00;;;;;;;7.60;3.28;;;13.00;99.90;;;;;;5067236;28;20031;-87
2022/11/15 09:52:27;;;;;;;6.57;3.35;;;13.00;99.90;;;;;;5064227;28;20036;-87
2022/11/15 09:54:53;;;;;;;4.85;3.08;;;13.00;99.90;;;;;;5058869;28;20189;-86
2022/11/15 09:57:38;;;;;;;4.78;2.90;;;13.00;99.90;;;;;;5065529;28;20056;-86
2022/11/15 10:00:30;;;;;;;6.35;2.65;;;13.00;99.90;;;;;;5058519;28;20045;-86
2022/11/15 10:03:30;;;;;;;4.05;2.58;;;13.00;99.90;;;;;;5064440;28;20028;-86
2022/11/15 10:06:00;;;;;;;11.85;2.83;;;13.00;99.90;;;;;;5048558;28;20064;-87
2022/11/15 10:08:40;;;;;;;7.20;2.85;;;13.00;99.90;;;;;;5066706;28;20040;-86
2022/11/15 10:11:18;;;;;;;12.23;2.78;;;13.10;99.90;;;;;;5057948;28;20086;-83
2022/11/15 10:13:47;;;;;;;5.22;2.60;;;13.10;99.90;;;;;;5062043;28;20029;-86
2022/11/15 10:16:28;;;;;;;5.00;2.85;;;13.20;99.90;;;;;;5058466;28;20470;-87
2022/11/15 10:19:11;;;;;;;3.80;2.65;;;13.20;99.90;;;;;;5058273;28;20133;-87
2022/11/15 10:21:43;;;;;;;5.03;2.63;;;13.20;99.90;;;;;;5059791;28;20048;-84
2022/11/15 10:24:15;;;;;;;5.82;3.22;;;13.30;99.90;;;;;;5058287;28;20059;-85
2022/11/15 10:26:47;;;;;;;6.47;2.58;;;13.20;99.90;;;;;;5058113;28;20131;-86
2022/11/15 10:29:18;;;;;;;9.98;2.65;;;13.40;99.90;;;;;;5058428;28;20036;-87
2022/11/15 10:31:43;;;;;;;7.90;2.58;;;13.50;99.90;;;;;;5063115;28;20028;-86
2022/11/15 10:34:19;;;;;;;5.13;2.53;;;13.50;99.90;;;;;;5056841;28;20041;-87
2022/11/15 10:36:58;;;;;;;13.27;2.83;;;13.70;99.90;;;;;;5055204;28;20271;-87
2022/11/15 10:39:25;;;;;;;6.93;2.90;;;13.90;99.90;;;;;;5057256;28;20082;-87
2022/11/15 10:41:51;;;;;;;9.38;2.50;;;14.00;99.90;;;;;;5058298;28;20036;-86
2022/11/15 10:44:18;;;;;;;2.95;2.58;;;14.00;99.90;;;;;;5058400;28;20041;-86
2022/11/15 10:46:54;;;;;;;7.15;3.03;;;14.00;99.90;;;;;;5058262;28;20423;-90
2022/11/15 10:49:25;;;;;;;5.53;2.55;;;14.00;99.90;;;;;;5056894;28;20056;-85
2022/11/15 10:52:14;;;;;;;4.13;2.58;;;14.20;99.90;;;;;;5057802;28;20111;-83
2022/11/15 10:54:48;;;;;;;3.70;2.40;;;14.20;99.90;;;;;;5064826;28;20392;-87
2022/11/15 10:57:23;;;;;;;5.57;2.72;;;14.30;99.90;;;;;;5064156;28;20021;-86
2022/11/15 11:00:00;;;;;;;7.43;2.97;;;14.30;99.90;;;;;;5057696;28;20466;-86
2022/11/15 11:02:38;;;;;;;4.68;2.53;;;14.30;99.90;;;;;;5060745;28;20036;-86
2022/11/15 11:05:24;;;;;;;4.95;2.70;;;14.30;99.90;;;;;;5064518;28;20106;-87
2022/11/15 11:08:01;;;;;;;3.67;2.15;;;14.30;99.90;;;;;;5061445;28;20036;-82
2022/11/15 11:10:27;;;;;;;9.07;2.35;;;14.40;99.90;;;;;;5068017;28;20033;-87
2022/11/15 11:12:52;;;;;;;7.55;2.78;;;14.40;99.90;;;;;;5067452;28;20028;-86
2022/11/15 11:15:18;;;;;;;3.08;2.63;;;14.50;99.90;;;;;;5062932;28;20036;-85
2022/11/15 11:17:59;;;;;;;6.65;2.72;;;14.60;99.90;;;;;;5067513;28;20393;-86
2022/11/15 11:20:37;;;;;;;4.72;2.40;;;14.70;99.90;;;;;;5057780;28;20021;-85
2022/11/15 11:23:18;;;;;;;5.22;2.30;;;14.80;99.90;;;;;;5057380;28;20054;-86
2022/11/15 11:26:03;;;;;;;7.07;2.40;;;14.80;99.90;;;;;;5062548;28;20041;-85
2022/11/15 11:28:41;;;;;;;4.38;1.90;;;14.80;99.90;;;;;;5054421;28;20417;-85
2022/11/15 11:31:56;;;;;;;3.90;2.50;;;14.70;99.90;;;;;;5057123;28;20062;-83
2022/11/15 11:34:36;;;;;;;3.60;2.47;;;14.60;99.90;;;;;;5053998;28;20033;-85
2022/11/15 11:37:28;;;;;;;4.00;2.58;;;14.60;99.90;;;;;;5060643;28;20120;-85
2022/11/15 11:40:30;;;;;;;5.88;2.67;;;14.70;99.90;;;;;;5065110;28;20032;-85
2022/11/15 11:43:16;;;;;;;3.40;2.13;;;14.70;99.90;;;;;;5070851;28;20029;-86
2022/11/15 11:46:13;;;;;;;4.60;2.33;;;14.70;99.90;;;;;;5061006;28;20028;-88
2022/11/15 11:48:55;;;;;;;7.07;2.60;;;14.80;99.90;;;;;;5061009;28;20051;-85
2022/11/15 11:51:36;;;;;;;5.75;2.08;;;14.90;99.90;;;;;;5061532;28;20032;-82
2022/11/15 11:54:11;;;;;;;2.03;1.83;;;14.90;99.90;;;;;;5061552;28;20032;-86
2022/11/15 11:56:40;;;;;;;3.70;2.05;;;14.80;99.90;;;;;;5070598;28;20020;-84
2022/11/15 11:59:16;;;;;;;5.40;2.00;;;14.80;99.90;;;;;;5060772;28;20060;-83
2022/11/15 12:01:43;;;;;;;;;;;14.70;99.90;;;;;;5060840;28;20394;-86
2022/11/15 12:04:15;;;;;;;9.60;2.60;;;14.70;99.90;;;;;;5060447;28;19909;-87
2022/11/15 12:06:49;;;;;;;5.07;2.30;;;14.90;99.90;;;;;;5060684;28;20021;-86
2022/11/15 12:09:46;;;;;;;3.65;2.03;;;14.90;99.90;;;;;;5062947;28;20036;-87
2022/11/15 12:12:29;;;;;;;4.25;2.47;;;14.90;99.90;;;;;;5063657;28;20040;-85
2022/11/15 12:15:10;;;;;;;3.08;2.00;;;14.90;99.90;;;;;;5061869;28;20024;-86
2022/11/15 12:17:38;;;;;;;3.17;2.03;;;14.80;99.90;;;;;;5070177;28;20055;-83
2022/11/15 12:20:27;;;;;;;3.20;1.92;;;14.80;99.90;;;;;;5060247;28;20029;-85
2022/11/15 12:23:06;;;;;;;4.75;1.88;;;14.80;99.90;;;;;;5068485;28;20045;-85
2022/11/15 12:25:57;;;;;;;3.88;1.70;;;14.80;99.90;;;;;;5059974;28;20053;-85
2022/11/15 12:28:49;;;;;;;2.38;1.85;;;14.80;99.90;;;;;;5059650;28;20041;-85
2022/11/15 12:31:24;;;;;;;3.10;1.80;;;14.90;99.90;;;;;;5067378;28;20399;-85
2022/11/15 12:33:54;;;;;;;4.32;2.00;;;15.00;99.90;;;;;;5061880;28;20021;-84
2022/11/15 12:36:23;;;;;;;4.90;2.35;;;15.00;99.90;;;;;;5069163;28;20036;-84
2022/11/15 12:39:08;;;;;;;4.88;2.00;;;14.90;99.90;;;;;;5070016;28;20461;-85
2022/11/15 12:42:07;;;;;;;6.18;2.70;;;14.80;99.90;;;;;;5065330;28;20039;-86
2022/11/15 12:44:37;;;;;;;4.43;2.63;;;14.80;99.90;;;;;;5057010;28;20048;-84
2022/11/15 12:47:08;;;;;;;5.90;4.30;;;14.80;99.90;;;;;;5059934;28;20045;-86
2022/11/15 12:49:37;;;;;;;8.00;4.10;;;14.80;99.90;;;;;;5063425;28;20070;-85
2022/11/15 12:52:04;;;;;;;5.93;3.42;;;14.90;99.90;;;;;;5068785;28;20028;-85
2022/11/15 12:54:36;;;;;;;5.43;2.75;;;14.90;99.90;;;;;;5060030;28;20127;-85
2022/11/15 12:57:07;;;;;;;4.53;2.67;;;14.80;99.90;;;;;;5069410;28;20016;-85
2022/11/15 12:59:54;;;;;;;5.20;3.13;;;14.90;99.90;;;;;;5061128;28;20029;-85
2022/11/15 13:02:37;;;;;;;6.53;3.67;;;14.90;99.90;;;;;;5064312;28;20029;-86
2022/11/15 13:05:15;;;;;;;7.25;2.35;;;14.90;99.90;;;;;;5069430;28;20503;-85
2022/11/15 13:07:40;;;;;;;6.10;2.10;;;14.80;99.90;;;;;;5069143;28;20048;-85
2022/11/15 13:10:12;;;;;;;4.88;2.28;;;14.80;99.90;;;;;;5068605;28;20032;-84
2022/11/15 13:12:43;;;;;;;5.88;2.60;;;14.90;99.90;;;;;;5069396;28;20024;-85
2022/11/15 13:15:12;;;;;;;7.18;2.65;;;14.90;99.90;;;;;;5069233;28;20258;-85
2022/11/15 13:17:52;;;;;;;5.25;2.53;;;15.00;99.90;;;;;;5066783;28;20028;-85
2022/11/15 13:20:20;;;;;;;5.50;2.75;;;15.10;99.90;;;;;;5069186;28;20020;-85